createdAt,value
2019-05-13T14:12:52.619Z,1.95
2019-05-13T14:15:22.143Z,1.42
2019-05-13T14:17:51.821Z,1.65
2019-05-13T14:20:21.983Z,1.40
2019-05-13T14:22:57.624Z,1.50
2019-05-13T14:25:22.529Z,1.60
2019-05-13T14:27:52.640Z,1.40
2019-05-13T14:30:22.301Z,1.55
2019-05-13T14:32:52.120Z,1.60
2019-05-13T14:35:21.993Z,1.67
2019-05-13T14:37:51.999Z,1.72
2019-05-13T14:40:22.436Z,1.87
2019-05-13T14:42:52.923Z,1.45
2019-05-13T14:45:23.783Z,1.50
2019-05-13T14:47:54.515Z,1.55
2019-05-13T14:50:23.811Z,1.27
2019-05-13T14:52:53.154Z,1.52
2019-05-13T14:55:22.475Z,1.75
2019-05-13T14:57:52.536Z,1.47
2019-05-13T15:00:22.701Z,1.27
2019-05-13T15:02:52.007Z,1.30
2019-05-13T15:05:22.014Z,1.65
2019-05-13T15:07:52.877Z,1.40
2019-05-13T15:10:22.534Z,1.80
2019-05-13T15:12:52.500Z,1.65
2019-05-13T15:15:22.480Z,1.30
2019-05-13T15:17:52.858Z,1.32
2019-05-13T15:20:22.528Z,1.60
2019-05-13T15:22:52.148Z,1.50
2019-05-13T15:25:22.274Z,1.55
2019-05-13T15:27:54.557Z,1.27
2019-05-13T15:30:23.878Z,1.25
2019-05-13T15:32:53.194Z,1.65
2019-05-13T15:35:22.535Z,1.10
2019-05-13T15:37:53.142Z,1.37
2019-05-13T15:40:22.690Z,1.30
2019-05-13T15:42:51.999Z,1.10
2019-05-13T15:45:21.444Z,0.88
2019-05-13T15:47:51.659Z,1.20
2019-05-13T15:50:21.499Z,1.12
2019-05-13T15:52:51.015Z,1.20
2019-05-13T15:55:21.360Z,1.12
2019-05-13T15:57:51.818Z,1.47
2019-05-13T16:00:22.020Z,1.12
2019-05-13T16:02:52.565Z,1.27
2019-05-13T16:05:21.847Z,1.40
2019-05-13T16:07:52.274Z,1.00
2019-05-13T16:25:28.088Z,1.30
2019-05-13T16:27:57.371Z,1.70
2019-05-13T16:30:26.727Z,1.47
2019-05-13T16:32:56.030Z,1.10
2019-05-13T16:35:25.316Z,1.57
2019-05-13T16:37:54.755Z,1.22
2019-05-13T16:40:24.034Z,1.30
2019-05-13T16:42:53.333Z,1.50
2019-05-13T16:45:22.703Z,1.37
2019-05-13T16:47:58.336Z,1.50
2019-05-13T16:50:24.735Z,1.30
2019-05-13T16:52:54.027Z,1.30
2019-05-13T16:55:23.324Z,1.70
2019-05-13T16:57:52.622Z,1.47
2019-05-13T17:00:22.459Z,1.37
2019-05-13T17:02:51.951Z,1.17
2019-05-13T17:05:21.427Z,1.52
2019-05-13T17:07:51.526Z,1.30
2019-05-13T17:10:22.492Z,1.30
2019-05-13T17:12:53.047Z,1.32
2019-05-13T17:15:22.362Z,1.35
2019-05-13T17:17:51.674Z,1.12
2019-05-13T17:20:21.565Z,1.02
2019-05-13T17:22:51.399Z,0.98
2019-05-13T17:25:20.858Z,1.37
2019-05-13T17:27:51.516Z,1.20
2019-05-13T17:30:22.722Z,1.15
2019-05-13T17:32:52.008Z,1.30
2019-05-13T17:35:21.964Z,1.30
2019-05-13T17:37:51.474Z,1.27
2019-05-13T17:40:22.448Z,1.30
2019-05-13T17:42:51.961Z,1.25
2019-05-13T17:45:21.971Z,1.32
2019-05-13T17:47:52.041Z,1.20
2019-05-13T17:50:22.255Z,1.30
2019-05-13T17:52:51.743Z,1.42
2019-05-13T17:55:22.346Z,1.27
2019-05-13T17:57:51.819Z,1.57
2019-05-13T18:00:21.690Z,1.60
2019-05-13T18:02:51.507Z,1.10
2019-05-13T18:05:22.519Z,1.47
2019-05-13T18:07:53.167Z,1.57
2019-05-13T18:10:22.715Z,1.27
2019-05-13T18:12:52.151Z,1.35
2019-05-13T18:15:22.167Z,1.67
2019-05-13T18:17:52.300Z,1.30
2019-05-13T18:20:21.835Z,1.60
2019-05-13T18:22:52.394Z,1.67
2019-05-13T18:25:22.806Z,1.50
2019-05-13T18:27:52.243Z,1.72
2019-05-13T18:30:21.834Z,1.95
2019-05-13T18:32:51.796Z,1.30
2019-05-13T18:35:22.023Z,1.52
2019-05-13T18:37:51.478Z,1.40
2019-05-13T18:40:21.926Z,1.62
2019-05-13T18:42:51.519Z,1.37
2019-05-13T18:45:22.010Z,1.62
2019-05-13T18:47:52.604Z,1.80
2019-05-13T18:50:22.061Z,1.20
2019-05-13T18:52:52.420Z,1.30
2019-05-13T18:55:21.936Z,1.60
2019-05-13T18:57:51.810Z,1.45
2019-05-13T19:00:21.855Z,1.72
2019-05-13T19:02:51.188Z,1.40
2019-05-13T19:05:21.188Z,1.60
2019-05-13T19:07:51.258Z,1.70
2019-05-13T19:10:22.037Z,1.50
2019-05-13T19:12:52.459Z,1.35
2019-05-13T19:15:21.976Z,1.27
2019-05-13T19:17:52.102Z,1.75
2019-05-13T19:20:22.611Z,1.20
2019-05-13T19:22:51.975Z,1.25
2019-05-13T19:25:22.355Z,1.50
2019-05-13T19:27:51.837Z,1.50
2019-05-13T19:30:21.365Z,1.40
2019-05-13T19:32:52.048Z,1.20
2019-05-13T19:35:21.876Z,1.42
2019-05-13T19:37:51.717Z,1.35
2019-05-13T19:40:22.056Z,0.95
2019-05-13T19:42:51.643Z,1.65
2019-05-13T19:45:21.852Z,2.35
2019-05-13T19:47:51.811Z,1.75
2019-05-13T19:50:22.380Z,1.65
2019-05-13T19:52:51.977Z,1.60
2019-05-13T19:55:21.282Z,1.40
2019-05-13T19:57:51.739Z,1.35
2019-05-13T20:00:21.378Z,1.35
2019-05-13T20:02:50.671Z,1.57
2019-05-13T20:05:23.062Z,1.32
2019-05-13T20:07:52.375Z,1.65
2019-05-13T20:10:21.719Z,1.80
2019-05-13T20:12:51.798Z,1.70
2019-05-13T20:15:22.106Z,1.82
2019-05-13T20:17:52.092Z,1.65
2019-05-13T20:20:21.586Z,1.70
2019-05-13T20:22:51.808Z,1.42
2019-05-13T20:25:21.803Z,1.60
2019-05-13T20:27:51.614Z,1.75
2019-05-13T20:30:22.102Z,2.00
2019-05-13T20:32:51.684Z,2.30
2019-05-13T20:35:21.924Z,2.10
2019-05-13T20:37:51.667Z,2.05
2019-05-13T20:40:22.094Z,2.45
2019-05-13T20:42:51.702Z,2.25
2019-05-13T20:45:22.471Z,2.35
2019-05-13T20:47:51.921Z,2.17
2019-05-13T20:50:21.737Z,2.62
2019-05-13T20:52:51.735Z,2.50
2019-05-13T20:55:22.055Z,2.90
2019-05-13T20:57:53.068Z,2.87
2019-05-13T21:00:23.237Z,2.90
2019-05-13T21:02:52.526Z,3.08
2019-05-13T21:05:21.999Z,2.50
2019-05-13T21:07:51.640Z,3.02
2019-05-13T21:10:21.353Z,2.65
2019-05-13T21:12:51.359Z,2.70
2019-05-13T21:15:20.962Z,3.00
2019-05-13T21:17:51.553Z,2.62
2019-05-13T21:20:25.545Z,3.37
2019-05-13T21:22:52.974Z,2.90
2019-05-13T21:25:22.270Z,2.83
2019-05-13T21:27:51.564Z,3.10
2019-05-13T21:30:22.347Z,3.58
2019-05-13T21:32:51.864Z,3.72
2019-05-13T21:35:21.384Z,3.70
2019-05-13T21:37:51.252Z,3.25
2019-05-13T21:40:21.679Z,3.25
2019-05-13T21:42:52.657Z,3.10
2019-05-13T21:45:22.250Z,3.83
2019-05-13T21:47:51.533Z,2.80
2019-05-13T21:50:33.094Z,3.02
2019-05-13T21:52:52.271Z,2.77
2019-05-13T21:55:21.761Z,2.62
2019-05-13T21:57:53.068Z,2.87
2019-05-13T22:00:26.280Z,2.87
2019-05-13T22:02:57.192Z,2.60
2019-05-13T22:05:26.493Z,2.95
2019-05-13T22:07:55.778Z,2.47
2019-05-13T22:10:25.078Z,2.55
2019-05-13T22:12:54.412Z,2.80
2019-05-13T22:15:23.761Z,3.05
2019-05-13T22:17:53.075Z,2.90
2019-05-13T22:20:22.347Z,2.77
2019-05-13T22:22:52.106Z,2.55
2019-05-13T22:25:21.499Z,3.02
2019-05-13T22:27:51.867Z,2.62
2019-05-13T22:30:21.410Z,2.47
2019-05-13T22:32:52.330Z,3.02
2019-05-13T22:35:21.916Z,2.40
2019-05-13T22:37:51.326Z,2.58
2019-05-13T22:40:21.880Z,3.00
2019-05-13T22:42:56.803Z,2.83
2019-05-13T22:45:22.408Z,2.47
2019-05-13T22:47:52.136Z,2.90
2019-05-13T22:50:21.913Z,3.33
2019-05-13T22:52:51.327Z,3.62
2019-05-13T22:55:21.922Z,2.62
2019-05-13T22:57:51.374Z,2.98
2019-05-13T23:00:22.372Z,2.90
2019-05-13T23:02:52.467Z,2.80
2019-05-13T23:05:21.949Z,2.58
2019-05-13T23:07:51.531Z,3.00
2019-05-13T23:10:22.520Z,2.87
2019-05-13T23:12:51.975Z,3.30
2019-05-13T23:15:21.396Z,3.20
2019-05-13T23:17:51.994Z,2.80
2019-05-13T23:20:21.667Z,3.00
2019-05-13T23:22:51.921Z,3.17
2019-05-13T23:25:21.517Z,3.22
2019-05-13T23:27:51.445Z,3.15
2019-05-13T23:30:20.970Z,3.20
2019-05-13T23:32:51.796Z,3.10
2019-05-13T23:35:21.705Z,3.42
2019-05-13T23:37:51.178Z,3.05
2019-05-13T23:40:20.839Z,3.00
2019-05-13T23:42:51.751Z,3.20
2019-05-13T23:45:22.571Z,3.33
2019-05-13T23:47:51.834Z,3.12
2019-05-13T23:50:21.656Z,3.30
2019-05-13T23:52:51.532Z,2.70
2019-05-13T23:55:22.569Z,3.40
2019-05-13T23:57:52.458Z,3.75
